首页
METAR-TAF:

METAR-TAF

机场 :

萨斯卡通约翰·乔治·迪芬贝克国际机场

萨斯卡通, 薩斯喀徹溫, 加拿大

纬度: 52-10N, 经度: 106-41W, 海拔: 501米

当前天气观测

该预报发布于1小时和15分钟前的22:00 UTC
风速20节,风向北转西北,有时为25节阵风
温度 -18°C
湿度 65%
气压 1024 hPa
能見度: 24.1公里
少量云层高于2500英尺

METAR: CYXE 232200Z 33020G25KT 15SM FEW025 M18/M23 A3023 RMK SC1 SLP285

时间: 17:15 (23:15 UTC)

预报

该预报发布于5小时和37分钟前的17:38 UTC
预报有效从23日的 18点(UTC)到 24日的 18点(UTC)
风速15节,风向西北,有时为25节阵风
能見度: 10公里
少量云层高于2000英尺
散云层高于10000英尺
短暂存在
从 23日的 18点(UTC)到 24日的 04点(UTC)
能見度: 6.4公里
多云层高于2000英尺
高吹雪
从 24日的 0400点(UTC)
风速10节,风向西转西北
能見度: 10公里
少量云层高于2000英尺
成为
从 24日的 08点(UTC)到 24日的 10点(UTC)
风速6节,风向西南
从 24日的 1400点(UTC)
风速10节,风向
能見度: 10公里
天空无云

TAF: CYXE 231738Z 2318/2418 32015G25KT P6SM FEW020 SCT100 TEMPO 2318/2404 4SM BLSN BKN020 FM240400 30010KT P6SM FEW020 BECMG 2408/2410 22006KT FM241400 19010KT P6SM SKC RMK NXT FCST BY 240000Z

超过4000个机场的气象观测和天气预报(METAR&TAF报告)。

可查询的气象台以黄色和红色小点在地图上表示。

将鼠标移到小点上方,可查看气象台名称。

然后点击查看天气观测和预报。

如需切换地图:点击带黑十字的绿色按钮放大地图;点击带横线的绿色按钮缩小地图;或者点击绿色箭头查看邻近地区的地图。


METAR-TAF: